createdAt,value
2022-09-23T00:02:02.608Z,87.35
2022-09-23T00:04:59.269Z,88.43
2022-09-23T00:07:57.231Z,89.29
2022-09-23T00:10:54.354Z,89.28
2022-09-23T00:13:53.217Z,88.31
2022-09-23T00:16:50.584Z,87.88
2022-09-23T00:19:48.376Z,88.01
2022-09-23T00:22:45.632Z,87.55
2022-09-23T00:25:42.518Z,86.19
2022-09-23T00:28:39.646Z,87.41
2022-09-23T00:31:36.844Z,89.10
2022-09-23T00:34:33.937Z,90.33
2022-09-23T00:37:31.560Z,88.02
2022-09-23T00:40:28.419Z,86.60
2022-09-23T00:43:43.360Z,84.43
2022-09-23T00:46:41.316Z,85.01
2022-09-23T00:49:38.878Z,86.86
2022-09-23T00:52:36.829Z,87.46
2022-09-23T00:55:39.486Z,86.40
2022-09-23T00:58:37.467Z,87.26
2022-09-23T01:01:34.671Z,86.97
2022-09-23T01:04:31.349Z,86.14
2022-09-23T01:07:28.328Z,86.99
2022-09-23T01:10:25.773Z,88.06
2022-09-23T01:13:59.601Z,88.20
2022-09-23T01:17:22.869Z,88.23
2022-09-23T01:20:28.682Z,88.34
2022-09-23T01:24:08.949Z,89.12
2022-09-23T01:27:15.467Z,89.46
2022-09-23T01:30:33.464Z,89.83
2022-09-23T01:33:56.160Z,89.73
2022-09-23T01:36:53.096Z,90.19
2022-09-23T01:40:06.270Z,90.18
2022-09-23T01:43:09.528Z,89.83
2022-09-23T01:46:28.063Z,89.99
2022-09-23T01:49:34.460Z,90.38
2022-09-23T01:52:38.951Z,90.87
2022-09-23T01:55:39.513Z,90.87
2022-09-23T01:58:46.873Z,90.64
2022-09-23T02:01:46.854Z,90.76
2022-09-23T02:04:50.503Z,90.42
2022-09-23T02:08:08.802Z,89.46
2022-09-23T02:11:08.799Z,89.29
2022-09-23T02:14:17.836Z,89.18
2022-09-23T02:17:17.341Z,88.44
2022-09-23T02:20:15.886Z,89.61
2022-09-23T02:23:14.570Z,90.41
2022-09-23T02:26:11.914Z,89.66
2022-09-23T02:29:28.370Z,90.41
2022-09-23T02:32:42.914Z,90.19
2022-09-23T02:35:44.153Z,90.23
2022-09-23T02:38:52.846Z,90.57
2022-09-23T02:42:21.061Z,90.12
2022-09-23T02:45:18.646Z,90.27
2022-09-23T02:48:22.286Z,89.43
2022-09-23T02:51:19.694Z,90.12
2022-09-23T02:54:18.453Z,89.76
2022-09-23T02:57:15.506Z,89.40
2022-09-23T03:00:13.272Z,89.35
2022-09-23T03:03:27.822Z,89.56
2022-09-23T03:06:39.474Z,89.30
2022-09-23T03:09:54.794Z,90.40
2022-09-23T03:13:12.305Z,90.19
2022-09-23T03:16:18.461Z,90.35
2022-09-23T03:19:27.531Z,90.49
2022-09-23T03:22:33.134Z,89.58
2022-09-23T03:25:31.811Z,89.29
2022-09-23T03:28:28.733Z,90.29
2022-09-23T03:31:25.700Z,90.07
2022-09-23T03:34:28.007Z,90.23
2022-09-23T03:37:55.888Z,91.37
2022-09-23T03:40:53.356Z,91.28
2022-09-23T03:43:53.298Z,90.82
2022-09-23T03:46:50.792Z,91.13
2022-09-23T03:49:48.640Z,90.46
2022-09-23T03:52:46.449Z,89.35
2022-09-23T03:55:47.186Z,89.59
2022-09-23T03:58:46.530Z,89.76
2022-09-23T04:01:46.170Z,89.06
2022-09-23T04:04:44.121Z,88.48
2022-09-23T04:07:42.455Z,87.66
2022-09-23T04:10:41.613Z,88.12
2022-09-23T04:13:38.634Z,88.44
2022-09-23T04:16:35.671Z,88.92
2022-09-23T04:19:32.793Z,89.50
2022-09-23T04:22:29.636Z,88.61
2022-09-23T04:25:26.650Z,88.62
2022-09-23T04:28:23.566Z,89.33
2022-09-23T04:31:20.392Z,90.01
2022-09-23T04:34:18.383Z,90.59
2022-09-23T04:37:15.861Z,90.50
2022-09-23T04:40:12.653Z,89.55
2022-09-23T04:43:13.423Z,88.74
2022-09-23T04:46:11.641Z,88.68
2022-09-23T04:49:08.990Z,88.41
2022-09-23T04:52:05.800Z,89.05
2022-09-23T04:55:02.511Z,88.58
2022-09-23T04:57:59.913Z,88.35
2022-09-23T05:01:04.959Z,88.52
2022-09-23T05:04:05.270Z,88.68
2022-09-23T05:07:03.566Z,90.00
2022-09-23T05:10:00.794Z,90.10
2022-09-23T05:12:58.896Z,90.55
2022-09-23T05:16:03.873Z,89.58
2022-09-23T05:19:00.455Z,88.54
2022-09-23T05:21:58.009Z,88.57
2022-09-23T05:24:54.559Z,88.57
2022-09-23T05:27:52.111Z,88.91
2022-09-23T05:30:51.910Z,89.83
2022-09-23T05:33:52.045Z,89.65
2022-09-23T05:36:48.747Z,90.23
2022-09-23T05:39:45.814Z,90.04
2022-09-23T05:42:42.693Z,89.67
2022-09-23T05:45:39.718Z,89.65
2022-09-23T05:48:36.970Z,89.66
2022-09-23T05:51:34.390Z,89.76
2022-09-23T05:54:31.753Z,90.12
2022-09-23T05:57:29.399Z,90.57
2022-09-23T06:00:26.421Z,91.10
2022-09-23T06:03:23.959Z,91.42
2022-09-23T06:06:23.394Z,91.21
2022-09-23T06:09:20.939Z,90.50
2022-09-23T06:12:20.011Z,90.19
2022-09-23T06:15:16.977Z,90.44
2022-09-23T06:18:13.783Z,91.09
2022-09-23T06:21:13.396Z,91.10
2022-09-23T06:24:15.430Z,90.41
2022-09-23T06:27:15.110Z,89.85
2022-09-23T06:30:12.623Z,89.99
2022-09-23T06:33:10.189Z,90.11
2022-09-23T06:36:08.134Z,90.26
2022-09-23T06:39:04.867Z,89.75
2022-09-23T06:42:01.892Z,90.23
2022-09-23T06:44:59.400Z,89.75
2022-09-23T06:47:57.907Z,90.03
2022-09-23T06:50:54.542Z,89.66
2022-09-23T06:53:52.574Z,90.03
2022-09-23T06:56:49.792Z,89.96
2022-09-23T06:59:46.757Z,89.72
2022-09-23T07:02:43.824Z,88.54
2022-09-23T07:05:42.140Z,88.70
2022-09-23T07:08:42.024Z,88.45
2022-09-23T07:11:40.244Z,88.68
2022-09-23T07:14:37.946Z,88.02
2022-09-23T07:17:35.107Z,87.87
2022-09-23T07:20:32.153Z,87.80
2022-09-23T07:23:28.556Z,88.65
2022-09-23T07:26:26.071Z,87.83
2022-09-23T07:29:22.824Z,85.40
2022-09-23T07:32:20.041Z,85.19
2022-09-23T07:35:17.118Z,84.43
2022-09-23T07:38:13.713Z,83.74
2022-09-23T07:41:11.809Z,82.15
2022-09-23T07:44:11.665Z,81.91
2022-09-23T07:47:08.585Z,82.28
2022-09-23T07:50:08.732Z,81.18
2022-09-23T07:53:08.638Z,80.26
2022-09-23T07:56:06.617Z,80.03
2022-09-23T07:59:05.281Z,77.98
2022-09-23T08:02:02.697Z,77.11
2022-09-23T08:04:59.790Z,77.49
2022-09-23T08:07:56.911Z,77.12
2022-09-23T08:11:01.195Z,76.22
2022-09-23T08:13:57.662Z,76.02
2022-09-23T08:16:54.883Z,74.63
2022-09-23T08:19:51.926Z,75.55
2022-09-23T08:22:50.941Z,76.14
2022-09-23T08:25:48.240Z,76.00
2022-09-23T08:28:45.662Z,75.29
2022-09-23T08:31:43.086Z,74.99
2022-09-23T08:34:40.076Z,74.61
2022-09-23T08:37:37.081Z,74.17
2022-09-23T08:40:35.672Z,75.16
2022-09-23T08:43:34.116Z,75.19
2022-09-23T08:46:37.723Z,75.27
2022-09-23T08:50:01.498Z,73.61
2022-09-23T08:53:01.427Z,74.24
2022-09-23T08:55:59.632Z,75.80
2022-09-23T08:59:02.358Z,75.36
2022-09-23T09:02:01.011Z,74.79
2022-09-23T09:05:00.399Z,75.70
2022-09-23T09:07:58.432Z,74.52
2022-09-23T09:10:58.185Z,74.24
2022-09-23T09:14:01.209Z,74.23
2022-09-23T09:17:02.019Z,71.95
2022-09-23T09:20:23.334Z,72.31
2022-09-23T09:23:28.476Z,69.87
2022-09-23T09:26:30.487Z,68.32
2022-09-23T09:29:35.269Z,68.79
2022-09-23T09:32:46.259Z,69.10
2022-09-23T09:35:54.465Z,69.15
2022-09-23T09:38:53.366Z,69.59
2022-09-23T09:41:52.007Z,68.48
2022-09-23T09:44:58.690Z,67.75
2022-09-23T09:48:17.634Z,67.40
2022-09-23T09:51:20.488Z,66.78
2022-09-23T09:54:23.422Z,68.14
2022-09-23T09:57:35.315Z,68.76
2022-09-23T10:00:52.747Z,68.32
2022-09-23T10:03:54.314Z,68.59
2022-09-23T10:07:07.292Z,68.94
2022-09-23T10:10:31.793Z,70.01
2022-09-23T10:13:30.236Z,69.31
2022-09-23T10:16:27.709Z,69.17
2022-09-23T10:19:27.177Z,68.76
2022-09-23T10:22:26.365Z,70.13
2022-09-23T10:25:27.625Z,69.60
2022-09-23T10:28:32.456Z,68.40
2022-09-23T10:31:33.767Z,67.87
2022-09-23T10:34:31.009Z,67.56
2022-09-23T10:37:34.768Z,68.32
2022-09-23T10:40:58.226Z,68.20
2022-09-23T10:44:23.503Z,68.25
2022-09-23T10:47:29.392Z,68.28
2022-09-23T10:50:30.627Z,68.46
2022-09-23T10:53:53.876Z,68.27
2022-09-23T10:57:01.949Z,70.31
2022-09-23T11:00:03.456Z,69.11
2022-09-23T11:03:25.303Z,69.85
2022-09-23T11:06:53.092Z,70.51
2022-09-23T11:10:46.560Z,69.77
2022-09-23T11:14:04.358Z,71.08
2022-09-23T11:17:25.918Z,69.04
2022-09-23T11:20:37.743Z,69.12
2022-09-23T11:23:34.687Z,68.24
2022-09-23T11:27:01.263Z,68.80
2022-09-23T11:30:16.913Z,67.74
2022-09-23T11:33:32.678Z,67.13
2022-09-23T11:36:35.678Z,67.29
2022-09-23T11:39:36.646Z,64.91
2022-09-23T11:42:46.904Z,64.93
2022-09-23T11:46:10.332Z,65.48
2022-09-23T11:49:19.190Z,65.68
2022-09-23T11:52:27.958Z,64.77
2022-09-23T11:55:27.515Z,63.29
2022-09-23T11:58:42.363Z,63.12
2022-09-23T12:02:15.073Z,62.90
2022-09-23T12:05:17.786Z,63.43
2022-09-23T12:08:23.389Z,63.96
2022-09-23T12:11:27.318Z,63.39
2022-09-23T12:14:26.740Z,63.66
2022-09-23T12:17:51.612Z,64.10
2022-09-23T12:21:05.669Z,62.77
2022-09-23T12:24:09.245Z,63.77
2022-09-23T12:27:11.020Z,63.15
2022-09-23T12:30:24.858Z,64.79
2022-09-23T12:33:24.575Z,65.10
2022-09-23T12:36:41.343Z,64.01
2022-09-23T12:39:38.645Z,64.07
2022-09-23T12:42:36.738Z,63.45
2022-09-23T12:45:35.489Z,64.30
2022-09-23T12:49:08.686Z,63.89
2022-09-23T12:52:11.814Z,64.00
2022-09-23T12:55:24.445Z,65.03
2022-09-23T12:58:39.239Z,65.76
2022-09-23T13:01:37.012Z,64.93
2022-09-23T13:05:03.764Z,64.74
2022-09-23T13:08:20.848Z,65.57
2022-09-23T13:11:30.777Z,64.16
2022-09-23T13:14:28.639Z,65.24
2022-09-23T13:17:39.173Z,66.27
2022-09-23T13:20:38.347Z,64.58
2022-09-23T13:23:35.407Z,64.64
2022-09-23T13:26:32.087Z,65.04
2022-09-23T13:29:42.532Z,65.69
2022-09-23T13:32:52.009Z,64.71
2022-09-23T13:35:50.885Z,63.45
2022-09-23T13:38:48.391Z,64.04
2022-09-23T13:41:45.308Z,65.60
2022-09-23T13:44:42.038Z,65.85
2022-09-23T13:47:40.298Z,64.92
2022-09-23T13:50:38.649Z,64.78
2022-09-23T13:53:36.025Z,64.35
2022-09-23T13:56:33.667Z,65.40
2022-09-23T13:59:41.634Z,65.52
2022-09-23T14:02:47.023Z,66.10
2022-09-23T14:05:44.025Z,66.25
2022-09-23T14:08:48.276Z,65.44
2022-09-23T14:11:44.965Z,65.92
2022-09-23T14:14:42.043Z,65.50
2022-09-23T14:17:39.101Z,64.79
2022-09-23T14:20:45.850Z,66.36
2022-09-23T14:23:46.364Z,65.42
2022-09-23T14:26:44.269Z,66.09
2022-09-23T14:29:42.730Z,66.75
2022-09-23T14:32:40.791Z,67.14
2022-09-23T14:35:42.847Z,66.39
2022-09-23T14:38:51.883Z,66.54
2022-09-23T14:41:49.337Z,66.13
2022-09-23T14:44:49.775Z,66.10
2022-09-23T14:47:51.947Z,66.24
2022-09-23T14:50:51.400Z,65.43
2022-09-23T14:53:48.815Z,65.34
2022-09-23T14:56:45.868Z,66.48
2022-09-23T14:59:51.832Z,65.97
2022-09-23T15:03:02.030Z,65.74
2022-09-23T15:06:05.061Z,66.03
2022-09-23T15:09:05.328Z,67.41
2022-09-23T15:12:05.795Z,66.97
2022-09-23T15:15:03.584Z,67.00
2022-09-23T15:18:13.735Z,66.62
2022-09-23T15:21:13.129Z,67.33
2022-09-23T15:24:40.435Z,67.22
2022-09-23T15:27:37.204Z,67.86
2022-09-23T15:30:38.207Z,68.17
2022-09-23T15:33:35.943Z,68.05
2022-09-23T15:36:33.336Z,68.08
2022-09-23T15:39:36.246Z,67.88
2022-09-23T15:42:34.428Z,67.59
2022-09-23T15:45:33.914Z,67.82
2022-09-23T15:48:35.905Z,68.29
2022-09-23T15:51:33.272Z,67.50
2022-09-23T15:54:32.406Z,67.24
2022-09-23T15:57:29.368Z,66.79
2022-09-23T16:00:26.181Z,67.62
2022-09-23T16:03:28.446Z,67.12
2022-09-23T16:06:27.031Z,67.31
2022-09-23T16:09:25.144Z,67.60
2022-09-23T16:12:22.509Z,68.03
2022-09-23T16:15:20.884Z,68.31
2022-09-23T16:18:19.265Z,68.62
2022-09-23T16:21:18.472Z,68.71
2022-09-23T16:24:17.525Z,68.67
2022-09-23T16:27:14.524Z,69.08
2022-09-23T16:30:11.784Z,69.50
2022-09-23T16:33:09.214Z,70.99
2022-09-23T16:36:08.027Z,70.56
2022-09-23T16:39:06.933Z,70.14
2022-09-23T16:42:04.932Z,72.39
2022-09-23T16:45:02.361Z,73.68
2022-09-23T16:48:00.055Z,74.06
2022-09-23T16:50:57.375Z,72.60
2022-09-23T16:53:55.586Z,71.20
2022-09-23T16:56:54.266Z,71.14
2022-09-23T17:00:10.231Z,73.54
2022-09-23T17:03:26.232Z,75.97
2022-09-23T17:06:25.110Z,72.47
2022-09-23T17:09:28.839Z,72.58
2022-09-23T17:12:29.051Z,73.34
2022-09-23T17:15:26.726Z,72.67
2022-09-23T17:18:24.757Z,73.29
2022-09-23T17:21:26.815Z,73.44
2022-09-23T17:24:24.190Z,72.71
2022-09-23T17:27:21.485Z,73.18
2022-09-23T17:30:18.655Z,73.29
2022-09-23T17:33:16.657Z,74.25
2022-09-23T17:36:14.745Z,75.14
2022-09-23T17:39:12.724Z,74.79
2022-09-23T17:42:10.299Z,76.76
2022-09-23T17:45:08.672Z,78.65
2022-09-23T17:48:06.493Z,77.83
2022-09-23T17:51:08.236Z,76.63
2022-09-23T17:54:06.324Z,76.39
2022-09-23T17:57:03.536Z,75.98
2022-09-23T18:00:00.353Z,75.79
2022-09-23T18:02:57.516Z,77.40
2022-09-23T18:05:54.649Z,78.70
2022-09-23T18:08:51.646Z,79.33
2022-09-23T18:11:49.940Z,78.97
2022-09-23T18:14:48.332Z,79.82
2022-09-23T18:17:45.669Z,78.24
2022-09-23T18:20:43.106Z,77.32
2022-09-23T18:23:40.606Z,77.94
2022-09-23T18:26:38.255Z,79.25
2022-09-23T18:29:35.664Z,79.92
2022-09-23T18:32:33.481Z,79.41
2022-09-23T18:35:30.778Z,78.99
2022-09-23T18:38:28.687Z,78.54
2022-09-23T18:41:26.995Z,77.32
2022-09-23T18:44:24.999Z,77.33
2022-09-23T18:47:43.682Z,77.64
2022-09-23T18:50:40.306Z,78.48
2022-09-23T18:53:37.295Z,79.54
2022-09-23T18:56:41.025Z,79.81
2022-09-23T18:59:38.370Z,79.31
2022-09-23T19:02:35.431Z,79.24
2022-09-23T19:05:35.426Z,79.04
2022-09-23T19:08:32.612Z,77.25
2022-09-23T19:11:29.180Z,76.50
2022-09-23T19:14:26.753Z,76.86
2022-09-23T19:17:24.478Z,78.40
2022-09-23T19:20:22.784Z,79.22
2022-09-23T19:23:20.703Z,81.15
2022-09-23T19:26:28.484Z,81.92
2022-09-23T19:29:25.524Z,80.17
2022-09-23T19:32:24.605Z,80.26
2022-09-23T19:35:21.286Z,80.92
2022-09-23T19:38:20.181Z,81.88
2022-09-23T19:41:17.396Z,82.69
2022-09-23T19:44:14.906Z,84.01
2022-09-23T19:47:15.701Z,85.31
2022-09-23T19:50:12.830Z,87.73
2022-09-23T19:53:10.551Z,88.81
2022-09-23T19:56:07.493Z,88.69
2022-09-23T19:59:07.262Z,89.35
2022-09-23T20:02:04.406Z,88.98
2022-09-23T20:05:01.910Z,89.91
2022-09-23T20:07:59.838Z,89.38
2022-09-23T20:10:57.664Z,90.68
2022-09-23T20:14:01.785Z,90.44
2022-09-23T20:17:00.394Z,91.03
2022-09-23T20:19:57.975Z,90.65
2022-09-23T20:22:55.683Z,90.13
2022-09-23T20:26:14.995Z,90.03
2022-09-23T20:29:12.847Z,90.03
2022-09-23T20:32:11.302Z,90.54
2022-09-23T20:35:08.860Z,90.03
2022-09-23T20:38:08.152Z,89.25
2022-09-23T20:41:06.778Z,91.52
2022-09-23T20:44:06.223Z,93.31
2022-09-23T20:47:03.618Z,93.44
2022-09-23T20:50:00.450Z,92.40
2022-09-23T20:52:57.977Z,91.95
2022-09-23T20:55:56.563Z,92.61
2022-09-23T20:58:54.287Z,93.45
2022-09-23T21:01:55.527Z,93.83
2022-09-23T21:04:53.470Z,93.30
2022-09-23T21:07:51.229Z,92.50
2022-09-23T21:10:58.269Z,92.77
2022-09-23T21:13:55.555Z,91.20
2022-09-23T21:16:54.723Z,93.75
2022-09-23T21:19:51.744Z,95.51
2022-09-23T21:22:51.540Z,97.46
2022-09-23T21:25:48.394Z,99.07
2022-09-23T21:28:47.077Z,100.00
2022-09-23T21:31:45.063Z,100.00
2022-09-23T21:34:42.963Z,99.67
2022-09-23T21:37:40.714Z,98.71
2022-09-23T21:40:55.945Z,99.74
2022-09-23T21:43:55.628Z,98.65
2022-09-23T21:46:54.378Z,98.33
2022-09-23T21:49:51.905Z,96.92
2022-09-23T21:52:51.954Z,96.87
2022-09-23T21:55:49.895Z,97.14
2022-09-23T21:58:47.437Z,99.55
2022-09-23T22:01:53.998Z,100.00
2022-09-23T22:04:51.610Z,100.00
2022-09-23T22:07:48.442Z,100.00
2022-09-23T22:10:45.655Z,100.00
2022-09-23T22:13:42.670Z,100.00
2022-09-23T22:16:39.929Z,100.00
2022-09-23T22:19:42.744Z,100.00
2022-09-23T22:22:43.995Z,100.00
2022-09-23T22:25:41.919Z,100.00
2022-09-23T22:28:57.986Z,100.00
2022-09-23T22:32:14.622Z,100.00
2022-09-23T22:35:12.965Z,100.00
2022-09-23T22:38:10.899Z,100.00
2022-09-23T22:41:08.472Z,100.00
2022-09-23T22:44:05.526Z,100.00
2022-09-23T22:47:03.167Z,100.00
2022-09-23T22:50:01.021Z,100.00
2022-09-23T22:52:58.873Z,100.00
2022-09-23T22:56:02.033Z,100.00
2022-09-23T22:59:06.031Z,100.00
2022-09-23T23:02:04.003Z,100.00
2022-09-23T23:05:02.285Z,100.00
2022-09-23T23:07:59.456Z,100.00
2022-09-23T23:10:57.200Z,100.00
2022-09-23T23:13:54.697Z,100.00
2022-09-23T23:16:52.156Z,100.00
2022-09-23T23:19:51.015Z,100.00
2022-09-23T23:22:48.607Z,100.00
2022-09-23T23:25:45.618Z,100.00
2022-09-23T23:28:43.642Z,100.00
2022-09-23T23:31:40.832Z,100.00
2022-09-23T23:34:37.645Z,100.00
2022-09-23T23:37:34.656Z,100.00
2022-09-23T23:40:31.586Z,100.00
2022-09-23T23:43:28.698Z,100.00
2022-09-23T23:46:27.736Z,100.00
2022-09-23T23:49:24.483Z,100.00
2022-09-23T23:52:21.657Z,100.00
2022-09-23T23:55:20.022Z,100.00
2022-09-23T23:58:18.138Z,100.00
